createdAt,value
2019-05-14T00:00:27.187Z,100323.95
2019-05-14T00:03:17.226Z,100340.45
2019-05-14T00:06:07.550Z,100350.13
2019-05-14T00:08:57.898Z,100325.48
2019-05-14T00:11:48.331Z,100326.05
2019-05-14T00:14:40.153Z,100336.52
2019-05-14T00:17:32.122Z,100332.63
2019-05-14T00:20:22.705Z,100335.47
2019-05-14T00:23:13.186Z,100338.11
2019-05-14T00:26:03.380Z,100343.45
2019-05-14T00:28:53.337Z,100341.40
2019-05-14T00:31:43.442Z,100332.72
2019-05-14T00:34:33.823Z,100342.47
2019-05-14T00:37:23.883Z,100340.58
2019-05-14T00:40:14.100Z,100334.71
2019-05-14T00:43:04.220Z,100338.03
2019-05-14T00:45:54.356Z,100337.23
2019-05-14T00:48:44.761Z,100354.06
2019-05-14T00:51:35.284Z,100336.31
2019-05-14T00:54:25.474Z,100344.89
2019-05-14T00:57:15.826Z,100353.11
2019-05-14T01:00:06.116Z,100350.29
2019-05-14T01:02:56.392Z,100352.06
2019-05-14T01:05:46.392Z,100348.45
2019-05-14T01:08:36.645Z,100353.27
2019-05-14T01:11:26.661Z,100344.08
2019-05-14T01:14:17.139Z,100306.44
2019-05-14T01:17:07.607Z,100339.20
2019-05-14T01:19:57.876Z,100342.96
2019-05-14T01:22:47.825Z,100347.86
2019-05-14T01:25:38.156Z,100347.55
2019-05-14T01:28:28.451Z,100345.66
2019-05-14T01:31:18.471Z,100337.74
2019-05-14T01:34:11.033Z,100340.73
2019-05-14T01:37:02.529Z,100352.70
2019-05-14T01:39:52.713Z,100331.11
2019-05-14T01:42:42.999Z,100345.98
2019-05-14T01:45:33.477Z,100304.08
2019-05-14T01:48:23.767Z,100328.87
2019-05-14T01:51:14.227Z,100334.64
2019-05-14T01:54:04.520Z,100323.90
2019-05-14T01:56:54.704Z,100315.96
2019-05-14T01:59:44.902Z,100312.66
2019-05-14T02:02:35.218Z,100328.73
2019-05-14T02:05:25.559Z,100319.95
2019-05-14T02:08:15.762Z,100309.53
2019-05-14T02:11:06.091Z,100309.03
2019-05-14T02:13:56.235Z,100322.09
2019-05-14T02:16:51.182Z,100312.09
2019-05-14T02:19:42.800Z,100325.99
2019-05-14T02:22:34.603Z,100343.34
2019-05-14T02:25:24.744Z,100325.41
2019-05-14T02:28:14.949Z,100320.91
2019-05-14T02:31:05.145Z,100278.08
2019-05-14T02:33:55.501Z,100317.17
2019-05-14T02:36:45.698Z,100317.97
2019-05-14T02:39:36.029Z,100298.45
2019-05-14T02:42:28.877Z,100289.21
2019-05-14T02:45:19.997Z,100304.89
2019-05-14T02:48:10.055Z,100303.62
2019-05-14T02:51:00.221Z,100298.22
2019-05-14T02:53:50.541Z,100292.85
2019-05-14T02:56:41.574Z,100291.91
2019-05-14T02:59:31.785Z,100285.69
2019-05-14T03:02:23.196Z,100286.75
2019-05-14T03:05:13.402Z,100304.68
2019-05-14T03:08:03.915Z,100292.11
2019-05-14T03:10:53.947Z,100291.56
2019-05-14T03:13:45.049Z,100281.48
2019-05-14T03:16:40.097Z,100294.16
2019-05-14T03:19:29.768Z,100297.13
2019-05-14T03:22:26.560Z,100290.94
2019-05-14T03:25:11.654Z,100285.86
2019-05-14T03:28:01.919Z,100285.31
2019-05-14T03:30:53.356Z,100298.80
2019-05-14T03:33:44.978Z,100296.04
2019-05-14T03:36:35.977Z,100301.09
2019-05-14T03:39:29.412Z,100303.33
2019-05-14T03:42:19.311Z,100299.59
2019-05-14T03:45:10.864Z,100293.86
2019-05-14T03:48:00.960Z,100292.36
2019-05-14T03:50:51.278Z,100298.17
2019-05-14T03:53:55.109Z,100290.47
2019-05-14T03:56:32.976Z,100306.95
2019-05-14T03:59:23.500Z,100308.48
2019-05-14T04:02:13.661Z,100290.47
2019-05-14T04:05:04.160Z,100295.21
2019-05-14T04:07:54.218Z,100288.97
2019-05-14T04:10:51.848Z,100289.76
2019-05-14T04:13:40.609Z,100311.78
2019-05-14T04:16:30.447Z,100307.25
2019-05-14T04:19:20.753Z,100291.55
2019-05-14T04:22:12.069Z,100288.36
2019-05-14T04:25:02.143Z,100301.47
2019-05-14T04:27:52.133Z,100327.50
2019-05-14T04:30:42.389Z,100318.73
2019-05-14T04:33:32.627Z,100301.95
2019-05-14T04:36:22.658Z,100294.95
2019-05-14T04:39:13.141Z,100282.58
2019-05-14T04:42:03.250Z,100289.75
2019-05-14T04:44:53.273Z,100299.73
2019-05-14T04:47:43.558Z,100296.08
2019-05-14T04:50:33.860Z,100284.70
2019-05-14T04:53:24.012Z,100291.00
2019-05-14T04:56:14.135Z,100280.95
2019-05-14T04:59:04.357Z,100286.91
2019-05-14T05:01:54.475Z,100299.89
2019-05-14T05:04:44.964Z,100300.42
2019-05-14T05:07:39.418Z,100295.59
2019-05-14T05:10:29.789Z,100297.16
2019-05-14T05:13:20.238Z,100294.16
2019-05-14T05:16:10.687Z,100294.16
2019-05-14T05:19:00.751Z,100294.17
2019-05-14T05:21:51.036Z,100294.17
2019-05-14T05:24:41.783Z,100293.69
2019-05-14T05:27:32.003Z,100304.54
2019-05-14T05:30:22.263Z,100299.26
2019-05-14T05:33:12.613Z,100304.34
2019-05-14T05:36:02.774Z,100291.25
2019-05-14T05:38:52.833Z,100310.89
2019-05-14T05:41:43.299Z,100279.95
2019-05-14T05:44:33.505Z,100314.31
2019-05-14T05:47:24.733Z,100307.70
2019-05-14T05:50:14.893Z,100291.73
2019-05-14T05:53:05.133Z,100291.73
2019-05-14T05:55:55.442Z,100310.50
2019-05-14T05:58:45.746Z,100304.66
2019-05-14T06:01:42.843Z,100309.03
2019-05-14T06:04:29.164Z,100309.03
2019-05-14T06:07:19.544Z,100316.61
2019-05-14T06:10:09.909Z,100333.00
2019-05-14T06:13:00.170Z,100334.75
2019-05-14T06:15:52.253Z,100328.75
2019-05-14T06:18:43.637Z,100317.67
2019-05-14T06:21:33.977Z,100313.82
2019-05-14T06:24:24.463Z,100327.52
2019-05-14T06:27:14.602Z,100324.48
2019-05-14T06:30:05.932Z,100315.00
2019-05-14T06:32:55.916Z,100319.75
2019-05-14T06:35:48.395Z,100315.70
2019-05-14T06:38:38.795Z,100312.98
2019-05-14T06:41:29.297Z,100310.45
2019-05-14T06:44:19.835Z,100312.35
2019-05-14T06:47:11.091Z,100334.66
2019-05-14T06:50:01.537Z,100317.41
2019-05-14T06:52:51.908Z,100326.74
2019-05-14T06:55:42.318Z,100318.09
2019-05-14T06:58:32.715Z,100316.40
2019-05-14T07:01:22.914Z,100318.42
2019-05-14T07:04:13.214Z,100315.42
2019-05-14T07:07:03.490Z,100310.85
2019-05-14T07:09:53.707Z,100311.70
2019-05-14T07:12:43.767Z,100317.30
2019-05-14T07:15:33.912Z,100315.15
2019-05-14T07:18:24.423Z,100315.58
2019-05-14T07:21:14.423Z,100315.47
2019-05-14T07:24:04.534Z,100317.50
2019-05-14T07:26:55.020Z,100337.75
2019-05-14T07:29:45.399Z,100331.72
2019-05-14T07:32:35.705Z,100327.06
2019-05-14T07:35:25.998Z,100332.73
2019-05-14T07:38:16.272Z,100324.11
2019-05-14T07:41:08.945Z,100327.74
2019-05-14T07:43:58.709Z,100336.31
2019-05-14T07:46:49.625Z,100348.44
2019-05-14T07:49:40.404Z,100330.32
2019-05-14T07:52:31.325Z,100326.84
2019-05-14T07:55:22.161Z,100346.25
2019-05-14T07:58:13.031Z,100336.58
2019-05-14T08:01:03.682Z,100330.16
2019-05-14T08:03:54.744Z,100338.20
2019-05-14T08:06:45.492Z,100330.25
2019-05-14T08:09:38.731Z,100322.22
2019-05-14T08:12:29.016Z,100327.04
2019-05-14T08:15:22.453Z,100325.56
2019-05-14T08:18:14.482Z,100316.97
2019-05-14T08:21:05.661Z,100323.51
2019-05-14T08:23:59.105Z,100309.59
2019-05-14T08:26:49.460Z,100313.16
2019-05-14T08:29:40.302Z,100312.36
2019-05-14T08:32:30.468Z,100313.80
2019-05-14T08:35:20.643Z,100304.42
2019-05-14T08:38:12.275Z,100310.27
2019-05-14T08:41:02.659Z,100310.41
2019-05-14T08:43:53.014Z,100317.80
2019-05-14T08:46:45.079Z,100287.30
2019-05-14T08:49:42.606Z,100313.25
2019-05-14T08:52:28.793Z,100320.23
2019-05-14T08:55:18.513Z,100316.83
2019-05-14T08:58:13.478Z,100319.05
2019-05-14T09:01:00.471Z,100318.25
2019-05-14T09:03:50.737Z,100322.95
2019-05-14T09:06:41.225Z,100320.77
2019-05-14T09:09:32.605Z,100334.81
2019-05-14T09:12:23.082Z,100327.91
2019-05-14T09:15:13.470Z,100326.52
2019-05-14T09:18:04.043Z,100316.97
2019-05-14T09:20:54.340Z,100320.94
2019-05-14T09:23:45.333Z,100320.58
2019-05-14T09:26:36.219Z,100322.27
2019-05-14T09:29:29.827Z,100312.09
2019-05-14T09:32:19.497Z,100315.34
2019-05-14T09:35:10.800Z,100312.55
2019-05-14T09:38:01.487Z,100303.08
2019-05-14T09:41:07.117Z,100293.17
2019-05-14T09:43:44.605Z,100295.09
2019-05-14T09:46:35.331Z,100286.52
2019-05-14T09:49:28.263Z,100293.61
2019-05-14T09:52:18.782Z,100286.16
2019-05-14T09:55:09.908Z,100282.15
2019-05-14T09:58:01.892Z,100272.00
2019-05-14T10:00:52.677Z,100280.16
2019-05-14T10:03:43.708Z,100283.61
2019-05-14T10:06:34.559Z,100278.72
2019-05-14T10:09:25.609Z,100277.37
2019-05-14T10:12:16.625Z,100279.16
2019-05-14T10:15:09.758Z,100268.28
2019-05-14T10:18:00.786Z,100265.56
2019-05-14T10:20:52.274Z,100268.28
2019-05-14T10:23:47.665Z,100269.80
2019-05-14T10:26:43.410Z,100256.38
2019-05-14T10:29:35.520Z,100257.23
2019-05-14T10:32:29.311Z,100255.40
2019-05-14T10:35:19.174Z,100246.36
2019-05-14T10:38:09.402Z,100208.12
2019-05-14T10:40:59.702Z,100230.20
2019-05-14T10:43:50.510Z,100233.38
2019-05-14T10:46:40.957Z,100227.70
2019-05-14T10:49:31.397Z,100230.17
2019-05-14T10:52:21.760Z,100227.66
2019-05-14T10:55:12.269Z,100227.73
2019-05-14T10:58:02.184Z,100222.12
2019-05-14T11:00:52.507Z,100218.30
2019-05-14T11:03:42.684Z,100210.19
2019-05-14T11:06:32.839Z,100197.81
2019-05-14T11:09:23.070Z,100198.79
2019-05-14T11:12:13.430Z,100198.19
2019-05-14T11:15:03.764Z,100191.31
2019-05-14T11:17:54.206Z,100187.51
2019-05-14T11:20:44.337Z,100199.35
2019-05-14T11:23:34.641Z,100187.95
2019-05-14T11:26:25.121Z,100187.11
2019-05-14T11:29:15.417Z,100187.77
2019-05-14T11:32:05.689Z,100180.81
2019-05-14T11:34:55.952Z,100180.80
2019-05-14T11:37:48.016Z,100172.65
2019-05-14T11:40:38.685Z,100184.30
2019-05-14T11:43:29.065Z,100169.30
2019-05-14T11:46:33.645Z,100178.91
2019-05-14T11:49:11.276Z,100176.82
2019-05-14T11:52:07.874Z,100165.11
2019-05-14T11:54:53.252Z,100168.59
2019-05-14T11:57:43.539Z,100169.66
2019-05-14T12:00:33.560Z,100172.27
2019-05-14T12:03:23.927Z,100167.36
2019-05-14T12:06:14.219Z,100168.53
2019-05-14T12:09:06.219Z,100163.55
2019-05-14T12:11:58.490Z,100171.56
2019-05-14T12:14:48.478Z,100176.89
2019-05-14T12:17:39.612Z,100171.13
2019-05-14T12:20:30.036Z,100167.59
2019-05-14T12:23:20.162Z,100193.90
2019-05-14T12:26:11.375Z,100176.33
2019-05-14T12:29:01.622Z,100173.73
2019-05-14T12:31:51.860Z,100186.78
2019-05-14T12:34:42.347Z,100173.34
2019-05-14T12:37:32.513Z,100179.64
2019-05-14T12:40:22.767Z,100136.45
2019-05-14T12:43:13.142Z,100160.36
2019-05-14T12:46:03.350Z,100150.91
2019-05-14T12:48:54.381Z,100144.56
2019-05-14T12:51:44.484Z,100116.91
2019-05-14T12:54:34.574Z,100145.44
2019-05-14T12:57:24.923Z,100137.73
2019-05-14T13:00:15.325Z,100136.92
2019-05-14T13:03:05.819Z,100136.36
2019-05-14T13:05:58.585Z,100132.39
2019-05-14T13:08:49.295Z,100134.16
2019-05-14T13:11:41.609Z,100126.07
2019-05-14T13:14:31.962Z,100118.73
2019-05-14T13:17:22.043Z,100127.16
2019-05-14T13:20:14.069Z,100118.91
2019-05-14T13:23:05.426Z,100104.54
2019-05-14T13:25:58.413Z,100124.82
2019-05-14T13:28:50.669Z,100107.54
2019-05-14T13:31:38.939Z,100107.70
2019-05-14T13:34:29.370Z,100122.42
2019-05-14T13:37:19.523Z,100111.45
2019-05-14T13:40:13.539Z,100120.77
2019-05-14T13:43:01.484Z,100106.71
2019-05-14T13:45:51.587Z,100099.13
2019-05-14T13:48:43.292Z,100100.51
2019-05-14T13:51:33.911Z,100102.48
2019-05-14T13:54:24.402Z,100092.45
2019-05-14T13:57:14.909Z,100088.86
2019-05-14T14:00:04.960Z,100100.03
2019-05-14T14:02:55.543Z,100079.98
2019-05-14T14:05:45.793Z,100087.64
2019-05-14T14:08:41.934Z,100078.53
2019-05-14T14:11:31.355Z,100082.75
2019-05-14T14:14:20.525Z,100085.19
2019-05-14T14:17:11.747Z,100076.84
2019-05-14T14:20:02.087Z,100076.27
2019-05-14T14:22:52.100Z,100074.70
2019-05-14T14:25:42.460Z,100059.31
2019-05-14T14:28:32.734Z,100067.92
2019-05-14T14:31:23.518Z,100071.84
2019-05-14T14:34:13.930Z,100062.90
2019-05-14T14:37:04.438Z,100074.22
2019-05-14T14:39:54.619Z,100064.19
2019-05-14T14:42:44.698Z,100076.48
2019-05-14T14:45:34.879Z,100062.73
2019-05-14T14:48:25.205Z,100055.08
2019-05-14T14:51:15.472Z,100050.05
2019-05-14T14:54:11.814Z,100067.52
2019-05-14T14:56:59.224Z,100054.70
2019-05-14T14:59:49.408Z,100058.96
2019-05-14T15:02:41.294Z,100062.39
2019-05-14T15:05:31.818Z,100073.55
2019-05-14T15:08:22.119Z,100055.25
2019-05-14T15:11:12.618Z,100059.33
2019-05-14T15:14:03.008Z,100057.30
2019-05-14T15:16:53.336Z,100054.77
2019-05-14T15:19:43.644Z,100057.03
2019-05-14T15:22:34.041Z,100060.55
2019-05-14T15:25:24.004Z,100056.97
2019-05-14T15:28:14.245Z,100072.42
2019-05-14T15:31:04.471Z,100070.57
2019-05-14T15:33:54.860Z,100060.41
2019-05-14T15:36:45.249Z,100058.83
2019-05-14T15:39:38.903Z,100060.94
2019-05-14T15:42:28.470Z,100054.09
2019-05-14T15:45:19.019Z,100049.61
2019-05-14T15:48:09.255Z,100048.19
2019-05-14T15:50:59.888Z,100047.23
2019-05-14T15:54:05.632Z,100046.24
2019-05-14T15:56:42.064Z,100043.17
2019-05-14T15:59:32.327Z,100056.72
2019-05-14T16:02:22.415Z,100050.87
2019-05-14T16:05:12.849Z,100057.53
2019-05-14T16:08:02.814Z,100063.87
2019-05-14T16:10:53.114Z,100062.27
2019-05-14T16:13:43.523Z,100054.89
2019-05-14T16:16:33.940Z,100062.22
2019-05-14T16:19:24.248Z,100060.02
2019-05-14T16:22:14.698Z,100052.25
2019-05-14T16:25:05.189Z,100053.64
2019-05-14T16:27:55.112Z,100053.97
2019-05-14T16:30:45.400Z,100054.64
2019-05-14T16:33:35.598Z,100048.92
2019-05-14T16:36:26.044Z,100043.55
2019-05-14T16:39:16.298Z,100046.61
2019-05-14T16:42:07.133Z,100052.41
2019-05-14T16:44:57.701Z,100053.44
2019-05-14T16:47:47.939Z,100062.23
2019-05-14T16:50:38.171Z,100067.66
2019-05-14T16:53:28.862Z,100066.84
2019-05-14T16:56:19.431Z,100068.03
2019-05-14T16:59:09.689Z,100059.88
2019-05-14T17:01:59.673Z,100081.36
2019-05-14T17:04:49.956Z,100081.36
2019-05-14T17:07:40.265Z,100082.02
2019-05-14T17:10:30.441Z,100083.87
2019-05-14T17:13:20.791Z,100091.30
2019-05-14T17:16:11.091Z,100090.26
2019-05-14T17:19:01.405Z,100081.78
2019-05-14T17:21:51.711Z,100084.13
2019-05-14T17:24:42.039Z,100086.17
2019-05-14T17:27:32.392Z,100076.98
2019-05-14T17:30:22.684Z,100096.09
2019-05-14T17:33:12.996Z,100096.09
2019-05-14T17:36:03.341Z,100100.98
2019-05-14T17:38:53.751Z,100103.69
2019-05-14T17:41:44.184Z,100098.11
2019-05-14T17:44:34.437Z,100103.69
2019-05-14T17:47:24.792Z,100101.34
2019-05-14T17:50:15.068Z,100098.16
2019-05-14T17:53:05.281Z,100100.67
2019-05-14T17:55:55.625Z,100101.30
2019-05-14T17:58:45.912Z,100098.09
2019-05-14T18:01:35.989Z,100092.84
2019-05-14T18:04:28.410Z,100092.84
2019-05-14T18:07:19.291Z,100082.64
2019-05-14T18:10:10.999Z,100082.64
2019-05-14T18:13:01.193Z,100093.22
2019-05-14T18:15:51.381Z,100095.41
2019-05-14T18:18:41.803Z,100093.56
2019-05-14T18:21:34.195Z,100104.72
2019-05-14T18:24:24.643Z,100106.65
2019-05-14T18:27:14.880Z,100109.16
2019-05-14T18:30:05.657Z,100110.61
2019-05-14T18:32:58.439Z,100110.61
2019-05-14T18:35:50.844Z,100092.72
2019-05-14T18:38:40.549Z,100106.20
2019-05-14T18:41:32.153Z,100104.87
2019-05-14T18:44:23.205Z,100104.50
2019-05-14T18:47:16.674Z,100102.15
2019-05-14T18:50:08.780Z,100104.52
2019-05-14T18:52:59.903Z,100103.30
2019-05-14T18:55:50.244Z,100103.30
2019-05-14T18:58:40.552Z,100112.16
2019-05-14T19:01:30.851Z,100106.43
2019-05-14T19:04:20.972Z,100112.85
2019-05-14T19:07:11.150Z,100107.45
2019-05-14T19:10:01.797Z,100103.08
2019-05-14T19:12:52.970Z,100107.81
2019-05-14T19:15:43.231Z,100097.89
2019-05-14T19:18:33.513Z,100097.89
2019-05-14T19:21:23.799Z,100098.59
2019-05-14T19:24:14.014Z,100101.45
2019-05-14T19:27:04.160Z,100105.66
2019-05-14T19:29:54.415Z,100105.29
2019-05-14T19:32:44.732Z,100097.69
2019-05-14T19:35:34.896Z,100094.66
2019-05-14T19:38:25.384Z,100102.23
2019-05-14T19:41:15.724Z,100095.72
2019-05-14T19:44:08.830Z,100103.82
2019-05-14T19:46:59.309Z,100103.82
2019-05-14T19:49:49.778Z,100106.10
2019-05-14T19:52:40.075Z,100106.10
2019-05-14T19:55:30.321Z,100107.09
2019-05-14T19:58:20.490Z,100101.29
2019-05-14T20:01:10.533Z,100105.86
2019-05-14T20:04:00.828Z,100107.99
2019-05-14T20:06:51.133Z,100108.48
2019-05-14T20:09:41.433Z,100108.03
2019-05-14T20:12:31.784Z,100114.38
2019-05-14T20:15:22.255Z,100108.16
2019-05-14T20:18:12.760Z,100113.39
2019-05-14T20:21:03.103Z,100080.84
2019-05-14T20:23:53.641Z,100117.03
2019-05-14T20:26:45.597Z,100096.79
2019-05-14T20:29:35.338Z,100096.79
2019-05-14T20:32:25.629Z,100102.43
2019-05-14T20:35:29.911Z,100110.69
2019-05-14T20:38:09.065Z,100104.19
2019-05-14T20:40:59.802Z,100113.62
2019-05-14T20:43:49.815Z,100115.67
2019-05-14T20:46:40.407Z,100123.44
2019-05-14T20:49:30.640Z,100124.09
2019-05-14T20:52:21.092Z,100128.47
2019-05-14T20:55:11.542Z,100120.74
2019-05-14T20:58:01.643Z,100118.05
2019-05-14T21:00:51.568Z,100125.13
2019-05-14T21:03:44.040Z,100116.23
2019-05-14T21:06:33.793Z,100117.63
2019-05-14T21:09:24.123Z,100122.37
2019-05-14T21:12:14.431Z,100113.70
2019-05-14T21:15:04.965Z,100115.86
2019-05-14T21:17:55.095Z,100110.75
2019-05-14T21:20:45.218Z,100113.67
2019-05-14T21:23:35.411Z,100113.89
2019-05-14T21:26:25.541Z,100114.43
2019-05-14T21:29:15.472Z,100115.78
2019-05-14T21:32:08.201Z,100111.07
2019-05-14T21:34:58.606Z,100117.72
2019-05-14T21:37:51.400Z,100112.33
2019-05-14T21:40:40.857Z,100108.66
2019-05-14T21:43:31.164Z,100114.69
2019-05-14T21:46:21.364Z,100112.75
2019-05-14T21:49:13.253Z,100113.36
2019-05-14T21:52:03.484Z,100115.86
2019-05-14T21:54:53.624Z,100116.05
2019-05-14T21:57:54.280Z,100115.67
2019-05-14T22:00:42.171Z,100111.51
2019-05-14T22:03:32.305Z,100111.97
2019-05-14T22:06:22.721Z,100080.03
2019-05-14T22:09:13.123Z,100116.05
2019-05-14T22:12:03.492Z,100117.73
2019-05-14T22:14:54.049Z,100112.52
2019-05-14T22:17:44.375Z,100109.70
2019-05-14T22:20:34.833Z,100109.95
2019-05-14T22:23:25.091Z,100118.37
2019-05-14T22:26:15.357Z,100121.44
2019-05-14T22:29:08.149Z,100122.51
2019-05-14T22:31:58.692Z,100122.79
2019-05-14T22:34:49.168Z,100120.09
2019-05-14T22:37:39.345Z,100117.52
2019-05-14T22:40:29.859Z,100109.42
2019-05-14T22:43:20.087Z,100104.56
2019-05-14T22:46:10.424Z,100101.91
2019-05-14T22:49:00.733Z,100103.09
2019-05-14T22:51:52.240Z,100099.20
2019-05-14T22:54:42.687Z,100097.77
2019-05-14T22:57:33.043Z,100098.14
2019-05-14T23:00:23.214Z,100099.81
2019-05-14T23:03:13.777Z,100094.45
2019-05-14T23:06:04.059Z,100099.16
2019-05-14T23:08:55.348Z,100096.73
2019-05-14T23:11:47.902Z,100090.22
2019-05-14T23:14:39.103Z,100092.55
2019-05-14T23:17:29.328Z,100084.88
2019-05-14T23:20:20.660Z,100086.44
2019-05-14T23:23:10.816Z,100086.48
2019-05-14T23:26:01.644Z,100080.56
2019-05-14T23:28:51.818Z,100088.44
2019-05-14T23:31:42.079Z,100084.39
2019-05-14T23:34:32.383Z,100084.56
2019-05-14T23:37:22.418Z,100083.52
2019-05-14T23:40:12.558Z,100080.73
2019-05-14T23:43:02.865Z,100086.22
2019-05-14T23:45:53.054Z,100084.55
2019-05-14T23:48:43.359Z,100083.63
2019-05-14T23:51:33.791Z,100082.23
2019-05-14T23:54:24.486Z,100082.56
2019-05-14T23:57:14.778Z,100086.50
